sensor_id;sensor_type;location;lat;lon;timestamp;P1;durP1;ratioP1;P2;durP2;ratioP2
76582;SDS011;65462;52.148;7.940;2023-03-31T00:00:50;5.35;;;1.60;;
76582;SDS011;65462;52.148;7.940;2023-03-31T00:03:17;4.47;;;1.60;;
76582;SDS011;65462;52.148;7.940;2023-03-31T00:05:46;8.20;;;1.83;;
76582;SDS011;65462;52.148;7.940;2023-03-31T00:08:12;5.03;;;1.70;;
76582;SDS011;65462;52.148;7.940;2023-03-31T00:10:38;5.95;;;1.75;;
76582;SDS011;65462;52.148;7.940;2023-03-31T00:13:09;9.32;;;2.08;;
76582;SDS011;65462;52.148;7.940;2023-03-31T00:15:35;4.40;;;1.73;;
76582;SDS011;65462;52.148;7.940;2023-03-31T00:18:00;3.90;;;1.58;;
76582;SDS011;65462;52.148;7.940;2023-03-31T00:20:26;6.60;;;1.85;;
76582;SDS011;65462;52.148;7.940;2023-03-31T00:22:51;5.43;;;1.63;;
76582;SDS011;65462;52.148;7.940;2023-03-31T00:25:18;4.55;;;1.73;;
76582;SDS011;65462;52.148;7.940;2023-03-31T00:27:45;5.28;;;1.50;;
76582;SDS011;65462;52.148;7.940;2023-03-31T00:30:13;4.38;;;1.65;;
76582;SDS011;65462;52.148;7.940;2023-03-31T00:32:39;7.38;;;1.80;;
76582;SDS011;65462;52.148;7.940;2023-03-31T00:35:05;4.10;;;1.40;;
76582;SDS011;65462;52.148;7.940;2023-03-31T00:37:30;6.32;;;1.88;;
76582;SDS011;65462;52.148;7.940;2023-03-31T00:39:57;6.78;;;1.88;;
76582;SDS011;65462;52.148;7.940;2023-03-31T00:42:23;3.92;;;1.75;;
76582;SDS011;65462;52.148;7.940;2023-03-31T00:47:40;4.88;;;1.70;;
76582;SDS011;65462;52.148;7.940;2023-03-31T00:50:19;4.45;;;1.90;;
76582;SDS011;65462;52.148;7.940;2023-03-31T00:53:00;5.35;;;1.63;;
76582;SDS011;65462;52.148;7.940;2023-03-31T00:55:39;2.33;;;1.15;;
76582;SDS011;65462;52.148;7.940;2023-03-31T00:58:07;5.95;;;1.70;;
76582;SDS011;65462;52.148;7.940;2023-03-31T01:00:38;5.30;;;1.77;;
76582;SDS011;65462;52.148;7.940;2023-03-31T01:03:05;5.47;;;1.60;;
76582;SDS011;65462;52.148;7.940;2023-03-31T01:05:46;4.40;;;1.38;;
76582;SDS011;65462;52.148;7.940;2023-03-31T01:08:17;4.60;;;1.30;;
76582;SDS011;65462;52.148;7.940;2023-03-31T01:10:45;3.83;;;1.20;;
76582;SDS011;65462;52.148;7.940;2023-03-31T01:13:13;5.30;;;1.30;;
76582;SDS011;65462;52.148;7.940;2023-03-31T01:15:39;4.25;;;2.00;;
76582;SDS011;65462;52.148;7.940;2023-03-31T01:18:06;4.43;;;1.33;;
76582;SDS011;65462;52.148;7.940;2023-03-31T01:26:55;6.70;;;1.75;;
76582;SDS011;65462;52.148;7.940;2023-03-31T01:40:49;2.83;;;1.23;;
76582;SDS011;65462;52.148;7.940;2023-03-31T01:43:29;5.40;;;1.40;;
76582;SDS011;65462;52.148;7.940;2023-03-31T01:46:05;6.78;;;1.40;;
76582;SDS011;65462;52.148;7.940;2023-03-31T01:48:47;3.67;;;1.50;;
76582;SDS011;65462;52.148;7.940;2023-03-31T01:51:40;4.50;;;1.33;;
76582;SDS011;65462;52.148;7.940;2023-03-31T01:54:19;6.20;;;1.67;;
76582;SDS011;65462;52.148;7.940;2023-03-31T01:56:45;7.63;;;1.45;;
76582;SDS011;65462;52.148;7.940;2023-03-31T01:59:16;7.18;;;1.60;;
76582;SDS011;65462;52.148;7.940;2023-03-31T02:01:52;5.43;;;1.48;;
76582;SDS011;65462;52.148;7.940;2023-03-31T02:04:29;4.13;;;1.48;;
76582;SDS011;65462;52.148;7.940;2023-03-31T02:07:02;3.72;;;1.20;;
76582;SDS011;65462;52.148;7.940;2023-03-31T02:09:34;4.78;;;1.90;;
76582;SDS011;65462;52.148;7.940;2023-03-31T02:12:07;7.73;;;1.20;;
76582;SDS011;65462;52.148;7.940;2023-03-31T02:14:36;3.13;;;1.20;;
76582;SDS011;65462;52.148;7.940;2023-03-31T02:17:05;4.22;;;1.48;;
76582;SDS011;65462;52.148;7.940;2023-03-31T02:19:33;4.97;;;1.60;;
76582;SDS011;65462;52.148;7.940;2023-03-31T02:22:00;5.38;;;1.52;;
76582;SDS011;65462;52.148;7.940;2023-03-31T02:24:28;4.53;;;1.30;;
76582;SDS011;65462;52.148;7.940;2023-03-31T02:27:00;5.38;;;1.48;;
76582;SDS011;65462;52.148;7.940;2023-03-31T02:29:33;4.93;;;1.40;;
76582;SDS011;65462;52.148;7.940;2023-03-31T02:32:21;3.38;;;1.30;;
76582;SDS011;65462;52.148;7.940;2023-03-31T02:34:44;7.40;;;1.40;;
76582;SDS011;65462;52.148;7.940;2023-03-31T02:37:10;4.40;;;1.70;;
76582;SDS011;65462;52.148;7.940;2023-03-31T02:39:36;3.83;;;1.17;;
76582;SDS011;65462;52.148;7.940;2023-03-31T02:42:05;6.47;;;1.63;;
76582;SDS011;65462;52.148;7.940;2023-03-31T02:44:34;6.30;;;1.27;;
76582;SDS011;65462;52.148;7.940;2023-03-31T02:47:01;4.40;;;1.50;;
76582;SDS011;65462;52.148;7.940;2023-03-31T02:49:28;5.60;;;1.33;;
76582;SDS011;65462;52.148;7.940;2023-03-31T02:54:36;5.30;;;1.48;;
76582;SDS011;65462;52.148;7.940;2023-03-31T02:57:18;6.88;;;1.85;;
76582;SDS011;65462;52.148;7.940;2023-03-31T03:00:00;4.03;;;1.10;;
76582;SDS011;65462;52.148;7.940;2023-03-31T03:02:39;4.78;;;1.08;;
76582;SDS011;65462;52.148;7.940;2023-03-31T03:14:06;6.75;;;1.55;;
76582;SDS011;65462;52.148;7.940;2023-03-31T03:16:53;5.85;;;1.38;;
76582;SDS011;65462;52.148;7.940;2023-03-31T03:19:26;4.78;;;1.30;;
76582;SDS011;65462;52.148;7.940;2023-03-31T03:21:51;7.20;;;1.50;;
76582;SDS011;65462;52.148;7.940;2023-03-31T03:24:17;4.53;;;1.42;;
76582;SDS011;65462;52.148;7.940;2023-03-31T03:26:43;4.20;;;1.52;;
76582;SDS011;65462;52.148;7.940;2023-03-31T03:29:09;4.65;;;1.40;;
76582;SDS011;65462;52.148;7.940;2023-03-31T03:31:37;6.60;;;1.33;;
76582;SDS011;65462;52.148;7.940;2023-03-31T03:34:02;4.72;;;1.60;;
76582;SDS011;65462;52.148;7.940;2023-03-31T03:36:28;7.10;;;1.95;;
76582;SDS011;65462;52.148;7.940;2023-03-31T03:38:53;6.75;;;1.50;;
76582;SDS011;65462;52.148;7.940;2023-03-31T03:41:18;7.07;;;2.08;;
76582;SDS011;65462;52.148;7.940;2023-03-31T03:43:43;6.07;;;1.65;;
76582;SDS011;65462;52.148;7.940;2023-03-31T03:46:09;4.55;;;1.50;;
76582;SDS011;65462;52.148;7.940;2023-03-31T03:48:35;5.63;;;1.98;;
76582;SDS011;65462;52.148;7.940;2023-03-31T03:51:00;6.38;;;1.85;;
76582;SDS011;65462;52.148;7.940;2023-03-31T03:53:26;3.72;;;1.83;;
76582;SDS011;65462;52.148;7.940;2023-03-31T03:55:51;7.57;;;1.58;;
76582;SDS011;65462;52.148;7.940;2023-03-31T03:58:17;6.35;;;2.03;;
76582;SDS011;65462;52.148;7.940;2023-03-31T04:00:43;7.40;;;1.77;;
76582;SDS011;65462;52.148;7.940;2023-03-31T04:03:10;5.55;;;1.60;;
76582;SDS011;65462;52.148;7.940;2023-03-31T04:05:35;6.25;;;1.73;;
76582;SDS011;65462;52.148;7.940;2023-03-31T04:08:00;5.82;;;1.70;;
76582;SDS011;65462;52.148;7.940;2023-03-31T04:10:26;4.90;;;1.70;;
76582;SDS011;65462;52.148;7.940;2023-03-31T04:12:52;7.68;;;2.08;;
76582;SDS011;65462;52.148;7.940;2023-03-31T04:15:17;6.22;;;2.00;;
76582;SDS011;65462;52.148;7.940;2023-03-31T04:17:42;3.60;;;1.55;;
76582;SDS011;65462;52.148;7.940;2023-03-31T04:20:14;5.38;;;1.70;;
76582;SDS011;65462;52.148;7.940;2023-03-31T04:22:40;3.63;;;1.63;;
76582;SDS011;65462;52.148;7.940;2023-03-31T04:25:06;3.97;;;1.80;;
76582;SDS011;65462;52.148;7.940;2023-03-31T04:27:41;5.03;;;1.75;;
76582;SDS011;65462;52.148;7.940;2023-03-31T04:30:20;6.78;;;2.15;;
76582;SDS011;65462;52.148;7.940;2023-03-31T04:32:53;4.88;;;2.20;;
76582;SDS011;65462;52.148;7.940;2023-03-31T04:35:22;5.75;;;2.00;;
76582;SDS011;65462;52.148;7.940;2023-03-31T04:37:48;4.53;;;2.00;;
76582;SDS011;65462;52.148;7.940;2023-03-31T04:40:15;4.65;;;2.10;;
76582;SDS011;65462;52.148;7.940;2023-03-31T04:42:41;4.70;;;2.20;;
76582;SDS011;65462;52.148;7.940;2023-03-31T04:45:07;6.93;;;2.33;;
76582;SDS011;65462;52.148;7.940;2023-03-31T04:47:33;9.18;;;2.33;;
76582;SDS011;65462;52.148;7.940;2023-03-31T04:49:59;5.93;;;2.38;;
76582;SDS011;65462;52.148;7.940;2023-03-31T04:52:24;6.95;;;2.30;;
76582;SDS011;65462;52.148;7.940;2023-03-31T04:54:49;6.78;;;1.95;;
76582;SDS011;65462;52.148;7.940;2023-03-31T04:57:14;7.90;;;2.30;;
76582;SDS011;65462;52.148;7.940;2023-03-31T04:59:40;7.05;;;2.55;;
76582;SDS011;65462;52.148;7.940;2023-03-31T05:02:05;9.02;;;2.90;;
76582;SDS011;65462;52.148;7.940;2023-03-31T05:04:30;6.00;;;2.08;;
76582;SDS011;65462;52.148;7.940;2023-03-31T05:06:55;5.38;;;2.10;;
76582;SDS011;65462;52.148;7.940;2023-03-31T05:09:21;4.95;;;2.50;;
76582;SDS011;65462;52.148;7.940;2023-03-31T05:11:46;5.75;;;2.45;;
76582;SDS011;65462;52.148;7.940;2023-03-31T05:14:12;5.07;;;2.20;;
76582;SDS011;65462;52.148;7.940;2023-03-31T05:16:37;7.00;;;2.10;;
76582;SDS011;65462;52.148;7.940;2023-03-31T05:19:02;9.13;;;2.20;;
76582;SDS011;65462;52.148;7.940;2023-03-31T05:21:28;4.35;;;1.98;;
76582;SDS011;65462;52.148;7.940;2023-03-31T05:23:55;7.65;;;2.20;;
76582;SDS011;65462;52.148;7.940;2023-03-31T05:26:21;5.63;;;1.80;;
76582;SDS011;65462;52.148;7.940;2023-03-31T05:28:49;5.93;;;2.20;;
76582;SDS011;65462;52.148;7.940;2023-03-31T05:31:14;6.70;;;2.20;;
76582;SDS011;65462;52.148;7.940;2023-03-31T05:33:39;4.82;;;2.17;;
76582;SDS011;65462;52.148;7.940;2023-03-31T05:36:09;7.35;;;2.17;;
76582;SDS011;65462;52.148;7.940;2023-03-31T05:38:36;3.42;;;1.80;;
76582;SDS011;65462;52.148;7.940;2023-03-31T05:41:01;4.35;;;1.83;;
76582;SDS011;65462;52.148;7.940;2023-03-31T05:43:27;6.93;;;2.70;;
76582;SDS011;65462;52.148;7.940;2023-03-31T05:45:52;4.93;;;1.92;;
76582;SDS011;65462;52.148;7.940;2023-03-31T05:48:18;8.68;;;2.28;;
76582;SDS011;65462;52.148;7.940;2023-03-31T05:50:43;6.78;;;2.47;;
76582;SDS011;65462;52.148;7.940;2023-03-31T05:53:08;4.22;;;1.65;;
76582;SDS011;65462;52.148;7.940;2023-03-31T05:55:37;3.95;;;1.88;;
76582;SDS011;65462;52.148;7.940;2023-03-31T05:58:02;4.90;;;1.98;;
76582;SDS011;65462;52.148;7.940;2023-03-31T06:00:28;5.97;;;1.92;;
76582;SDS011;65462;52.148;7.940;2023-03-31T06:02:53;5.35;;;1.80;;
76582;SDS011;65462;52.148;7.940;2023-03-31T06:05:18;7.00;;;2.20;;
76582;SDS011;65462;52.148;7.940;2023-03-31T06:07:43;6.45;;;2.08;;
76582;SDS011;65462;52.148;7.940;2023-03-31T06:10:09;6.57;;;2.08;;
76582;SDS011;65462;52.148;7.940;2023-03-31T06:12:34;5.65;;;1.80;;
76582;SDS011;65462;52.148;7.940;2023-03-31T06:15:00;3.92;;;1.98;;
76582;SDS011;65462;52.148;7.940;2023-03-31T06:17:25;6.05;;;1.77;;
76582;SDS011;65462;52.148;7.940;2023-03-31T06:19:51;7.55;;;2.20;;
76582;SDS011;65462;52.148;7.940;2023-03-31T06:22:16;9.50;;;2.20;;
76582;SDS011;65462;52.148;7.940;2023-03-31T06:24:42;4.45;;;1.98;;
76582;SDS011;65462;52.148;7.940;2023-03-31T06:27:07;4.97;;;1.83;;
76582;SDS011;65462;52.148;7.940;2023-03-31T06:29:32;5.07;;;2.42;;
76582;SDS011;65462;52.148;7.940;2023-03-31T06:31:58;3.47;;;1.77;;
76582;SDS011;65462;52.148;7.940;2023-03-31T06:34:23;6.78;;;1.90;;
76582;SDS011;65462;52.148;7.940;2023-03-31T06:36:48;6.95;;;2.10;;
76582;SDS011;65462;52.148;7.940;2023-03-31T06:39:13;4.15;;;1.80;;
76582;SDS011;65462;52.148;7.940;2023-03-31T06:41:39;6.35;;;1.75;;
76582;SDS011;65462;52.148;7.940;2023-03-31T06:44:04;4.82;;;1.80;;
76582;SDS011;65462;52.148;7.940;2023-03-31T06:46:30;6.15;;;1.70;;
76582;SDS011;65462;52.148;7.940;2023-03-31T06:48:55;4.30;;;2.17;;
76582;SDS011;65462;52.148;7.940;2023-03-31T06:51:20;4.65;;;1.88;;
76582;SDS011;65462;52.148;7.940;2023-03-31T06:53:46;5.47;;;2.35;;
76582;SDS011;65462;52.148;7.940;2023-03-31T06:56:11;6.90;;;2.20;;
76582;SDS011;65462;52.148;7.940;2023-03-31T06:58:36;9.00;;;2.38;;
76582;SDS011;65462;52.148;7.940;2023-03-31T07:01:02;7.05;;;2.00;;
76582;SDS011;65462;52.148;7.940;2023-03-31T07:03:29;8.70;;;2.63;;
76582;SDS011;65462;52.148;7.940;2023-03-31T07:05:56;7.80;;;2.20;;
76582;SDS011;65462;52.148;7.940;2023-03-31T07:08:22;5.80;;;2.45;;
76582;SDS011;65462;52.148;7.940;2023-03-31T07:10:48;6.80;;;2.20;;
76582;SDS011;65462;52.148;7.940;2023-03-31T07:13:15;6.50;;;2.17;;
76582;SDS011;65462;52.148;7.940;2023-03-31T07:15:41;7.28;;;1.90;;
76582;SDS011;65462;52.148;7.940;2023-03-31T07:18:06;7.63;;;2.10;;
76582;SDS011;65462;52.148;7.940;2023-03-31T07:20:33;5.53;;;1.92;;
76582;SDS011;65462;52.148;7.940;2023-03-31T07:22:58;5.95;;;1.80;;
76582;SDS011;65462;52.148;7.940;2023-03-31T07:25:23;3.50;;;1.60;;
76582;SDS011;65462;52.148;7.940;2023-03-31T07:27:49;6.45;;;1.40;;
76582;SDS011;65462;52.148;7.940;2023-03-31T07:30:16;3.28;;;1.10;;
76582;SDS011;65462;52.148;7.940;2023-03-31T07:32:46;4.20;;;1.35;;
76582;SDS011;65462;52.148;7.940;2023-03-31T07:35:13;3.20;;;1.10;;
76582;SDS011;65462;52.148;7.940;2023-03-31T07:37:39;4.57;;;1.50;;
76582;SDS011;65462;52.148;7.940;2023-03-31T07:40:06;3.70;;;1.30;;
76582;SDS011;65462;52.148;7.940;2023-03-31T07:42:33;1.92;;;1.00;;
76582;SDS011;65462;52.148;7.940;2023-03-31T07:44:59;4.57;;;1.10;;
76582;SDS011;65462;52.148;7.940;2023-03-31T07:47:25;3.80;;;0.82;;
76582;SDS011;65462;52.148;7.940;2023-03-31T07:49:51;4.07;;;0.90;;
76582;SDS011;65462;52.148;7.940;2023-03-31T07:52:16;3.72;;;1.20;;
76582;SDS011;65462;52.148;7.940;2023-03-31T07:54:43;4.97;;;1.13;;
76582;SDS011;65462;52.148;7.940;2023-03-31T07:57:09;4.35;;;0.95;;
76582;SDS011;65462;52.148;7.940;2023-03-31T07:59:34;2.00;;;1.02;;
76582;SDS011;65462;52.148;7.940;2023-03-31T08:02:00;5.50;;;1.05;;
76582;SDS011;65462;52.148;7.940;2023-03-31T08:04:25;3.33;;;1.00;;
76582;SDS011;65462;52.148;7.940;2023-03-31T08:06:51;6.90;;;1.27;;
76582;SDS011;65462;52.148;7.940;2023-03-31T08:09:16;3.42;;;1.13;;
76582;SDS011;65462;52.148;7.940;2023-03-31T08:11:42;3.10;;;1.02;;
76582;SDS011;65462;52.148;7.940;2023-03-31T08:14:08;4.63;;;1.10;;
76582;SDS011;65462;52.148;7.940;2023-03-31T08:16:33;1.48;;;0.80;;
76582;SDS011;65462;52.148;7.940;2023-03-31T08:18:59;3.70;;;1.48;;
76582;SDS011;65462;52.148;7.940;2023-03-31T08:21:26;3.70;;;1.00;;
76582;SDS011;65462;52.148;7.940;2023-03-31T08:23:53;3.55;;;0.90;;
76582;SDS011;65462;52.148;7.940;2023-03-31T08:26:19;3.47;;;1.08;;
76582;SDS011;65462;52.148;7.940;2023-03-31T08:28:45;2.25;;;0.90;;
76582;SDS011;65462;52.148;7.940;2023-03-31T08:31:13;4.10;;;0.90;;
76582;SDS011;65462;52.148;7.940;2023-03-31T08:33:40;4.38;;;1.67;;
76582;SDS011;65462;52.148;7.940;2023-03-31T08:36:06;2.25;;;1.20;;
76582;SDS011;65462;52.148;7.940;2023-03-31T08:38:34;2.05;;;0.82;;
76582;SDS011;65462;52.148;7.940;2023-03-31T08:41:03;4.10;;;1.10;;
76582;SDS011;65462;52.148;7.940;2023-03-31T08:43:36;4.72;;;1.30;;
76582;SDS011;65462;52.148;7.940;2023-03-31T08:46:05;2.67;;;0.98;;
76582;SDS011;65462;52.148;7.940;2023-03-31T08:48:36;3.08;;;1.10;;
76582;SDS011;65462;52.148;7.940;2023-03-31T08:51:22;3.33;;;1.20;;
76582;SDS011;65462;52.148;7.940;2023-03-31T08:56:27;2.10;;;1.20;;
76582;SDS011;65462;52.148;7.940;2023-03-31T08:58:54;2.65;;;1.30;;
76582;SDS011;65462;52.148;7.940;2023-03-31T09:01:26;3.00;;;1.27;;
76582;SDS011;65462;52.148;7.940;2023-03-31T09:06:47;3.97;;;1.42;;
76582;SDS011;65462;52.148;7.940;2023-03-31T09:09:24;3.78;;;1.40;;
76582;SDS011;65462;52.148;7.940;2023-03-31T09:12:00;3.42;;;1.58;;
76582;SDS011;65462;52.148;7.940;2023-03-31T09:14:40;5.47;;;1.45;;
76582;SDS011;65462;52.148;7.940;2023-03-31T09:19:55;4.15;;;1.60;;
76582;SDS011;65462;52.148;7.940;2023-03-31T09:22:25;4.50;;;1.50;;
76582;SDS011;65462;52.148;7.940;2023-03-31T09:25:18;5.35;;;1.55;;
76582;SDS011;65462;52.148;7.940;2023-03-31T09:27:47;3.55;;;1.40;;
76582;SDS011;65462;52.148;7.940;2023-03-31T09:32:47;5.55;;;1.90;;
76582;SDS011;65462;52.148;7.940;2023-03-31T09:37:46;4.38;;;1.40;;
76582;SDS011;65462;52.148;7.940;2023-03-31T09:40:16;4.80;;;1.40;;
76582;SDS011;65462;52.148;7.940;2023-03-31T09:42:44;3.20;;;1.10;;
76582;SDS011;65462;52.148;7.940;2023-03-31T09:45:17;4.43;;;1.23;;
76582;SDS011;65462;52.148;7.940;2023-03-31T09:47:50;3.97;;;1.35;;
76582;SDS011;65462;52.148;7.940;2023-03-31T09:50:21;2.28;;;0.95;;
76582;SDS011;65462;52.148;7.940;2023-03-31T09:52:55;4.57;;;1.45;;
76582;SDS011;65462;52.148;7.940;2023-03-31T09:56:05;3.20;;;1.65;;
76582;SDS011;65462;52.148;7.940;2023-03-31T09:58:18;4.97;;;1.10;;
76582;SDS011;65462;52.148;7.940;2023-03-31T10:01:04;5.93;;;1.20;;
76582;SDS011;65462;52.148;7.940;2023-03-31T10:03:32;3.10;;;1.25;;
76582;SDS011;65462;52.148;7.940;2023-03-31T10:06:12;2.28;;;1.00;;
76582;SDS011;65462;52.148;7.940;2023-03-31T10:08:46;2.60;;;1.00;;
76582;SDS011;65462;52.148;7.940;2023-03-31T10:11:18;3.38;;;0.98;;
76582;SDS011;65462;52.148;7.940;2023-03-31T10:16:11;2.30;;;1.02;;
76582;SDS011;65462;52.148;7.940;2023-03-31T10:18:39;4.57;;;1.33;;
76582;SDS011;65462;52.148;7.940;2023-03-31T10:21:06;4.72;;;1.30;;
76582;SDS011;65462;52.148;7.940;2023-03-31T10:23:47;2.03;;;1.17;;
76582;SDS011;65462;52.148;7.940;2023-03-31T10:26:15;3.55;;;1.00;;
76582;SDS011;65462;52.148;7.940;2023-03-31T10:28:44;3.13;;;1.05;;
76582;SDS011;65462;52.148;7.940;2023-03-31T10:31:13;1.63;;;0.82;;
76582;SDS011;65462;52.148;7.940;2023-03-31T10:33:41;4.05;;;1.30;;
76582;SDS011;65462;52.148;7.940;2023-03-31T10:36:27;3.65;;;1.20;;
76582;SDS011;65462;52.148;7.940;2023-03-31T10:38:53;3.15;;;0.90;;
76582;SDS011;65462;52.148;7.940;2023-03-31T10:41:23;6.00;;;0.90;;
76582;SDS011;65462;52.148;7.940;2023-03-31T10:43:51;2.03;;;1.02;;
76582;SDS011;65462;52.148;7.940;2023-03-31T10:46:18;4.35;;;1.48;;
76582;SDS011;65462;52.148;7.940;2023-03-31T10:48:44;3.38;;;1.10;;
76582;SDS011;65462;52.148;7.940;2023-03-31T10:51:25;3.55;;;1.10;;
76582;SDS011;65462;52.148;7.940;2023-03-31T10:53:55;3.00;;;1.10;;
76582;SDS011;65462;52.148;7.940;2023-03-31T10:59:22;3.33;;;0.93;;
76582;SDS011;65462;52.148;7.940;2023-03-31T11:10:46;5.43;;;1.15;;
76582;SDS011;65462;52.148;7.940;2023-03-31T11:21:22;3.10;;;1.27;;
76582;SDS011;65462;52.148;7.940;2023-03-31T11:24:09;3.25;;;1.00;;
76582;SDS011;65462;52.148;7.940;2023-03-31T11:32:30;4.93;;;1.40;;
76582;SDS011;65462;52.148;7.940;2023-03-31T11:35:05;4.15;;;1.33;;
76582;SDS011;65462;52.148;7.940;2023-03-31T11:38:13;4.03;;;1.33;;
76582;SDS011;65462;52.148;7.940;2023-03-31T11:40:52;4.72;;;1.45;;
76582;SDS011;65462;52.148;7.940;2023-03-31T11:51:41;4.78;;;2.58;;
76582;SDS011;65462;52.148;7.940;2023-03-31T11:54:33;4.30;;;2.47;;
76582;SDS011;65462;52.148;7.940;2023-03-31T11:57:12;5.55;;;2.40;;
76582;SDS011;65462;52.148;7.940;2023-03-31T11:59:41;6.15;;;2.28;;
76582;SDS011;65462;52.148;7.940;2023-03-31T12:02:17;3.88;;;2.30;;
76582;SDS011;65462;52.148;7.940;2023-03-31T12:04:52;6.20;;;2.33;;
76582;SDS011;65462;52.148;7.940;2023-03-31T12:07:27;5.82;;;2.40;;
76582;SDS011;65462;52.148;7.940;2023-03-31T12:12:44;4.80;;;1.95;;
76582;SDS011;65462;52.148;7.940;2023-03-31T12:17:40;6.80;;;2.00;;
76582;SDS011;65462;52.148;7.940;2023-03-31T12:22:59;6.20;;;2.22;;
76582;SDS011;65462;52.148;7.940;2023-03-31T12:25:29;6.47;;;3.00;;
76582;SDS011;65462;52.148;7.940;2023-03-31T12:28:11;6.88;;;2.25;;
76582;SDS011;65462;52.148;7.940;2023-03-31T12:30:38;4.90;;;2.15;;
76582;SDS011;65462;52.148;7.940;2023-03-31T12:33:17;5.15;;;2.15;;
76582;SDS011;65462;52.148;7.940;2023-03-31T12:44:23;7.28;;;2.17;;
76582;SDS011;65462;52.148;7.940;2023-03-31T12:47:02;4.40;;;2.10;;
76582;SDS011;65462;52.148;7.940;2023-03-31T12:57:50;3.65;;;1.30;;
76582;SDS011;65462;52.148;7.940;2023-03-31T13:00:25;5.05;;;1.08;;
76582;SDS011;65462;52.148;7.940;2023-03-31T13:05:54;5.15;;;1.30;;
76582;SDS011;65462;52.148;7.940;2023-03-31T13:08:47;5.35;;;1.30;;
76582;SDS011;65462;52.148;7.940;2023-03-31T13:11:14;6.80;;;1.30;;
76582;SDS011;65462;52.148;7.940;2023-03-31T13:13:43;3.88;;;1.15;;
76582;SDS011;65462;52.148;7.940;2023-03-31T13:16:10;4.15;;;1.10;;
76582;SDS011;65462;52.148;7.940;2023-03-31T13:18:35;7.65;;;1.40;;
76582;SDS011;65462;52.148;7.940;2023-03-31T13:21:01;3.92;;;1.00;;
76582;SDS011;65462;52.148;7.940;2023-03-31T13:23:29;4.38;;;1.27;;
76582;SDS011;65462;52.148;7.940;2023-03-31T13:25:59;6.20;;;1.05;;
76582;SDS011;65462;52.148;7.940;2023-03-31T13:28:26;3.00;;;0.77;;
76582;SDS011;65462;52.148;7.940;2023-03-31T13:36:18;5.15;;;1.30;;
76582;SDS011;65462;52.148;7.940;2023-03-31T13:39:04;6.32;;;1.40;;
76582;SDS011;65462;52.148;7.940;2023-03-31T13:44:16;6.03;;;1.08;;
76582;SDS011;65462;52.148;7.940;2023-03-31T13:49:53;6.97;;;1.30;;
76582;SDS011;65462;52.148;7.940;2023-03-31T14:00:38;3.90;;;1.25;;
76582;SDS011;65462;52.148;7.940;2023-03-31T14:06:49;7.80;;;1.30;;
76582;SDS011;65462;52.148;7.940;2023-03-31T14:09:21;7.78;;;1.20;;
76582;SDS011;65462;52.148;7.940;2023-03-31T14:11:50;4.78;;;1.20;;
76582;SDS011;65462;52.148;7.940;2023-03-31T14:14:17;4.97;;;1.20;;
76582;SDS011;65462;52.148;7.940;2023-03-31T14:16:52;6.72;;;1.20;;
76582;SDS011;65462;52.148;7.940;2023-03-31T14:22:24;5.28;;;1.23;;
76582;SDS011;65462;52.148;7.940;2023-03-31T14:30:17;7.32;;;1.17;;
76582;SDS011;65462;52.148;7.940;2023-03-31T14:37:52;7.32;;;1.33;;
76582;SDS011;65462;52.148;7.940;2023-03-31T14:40:20;5.53;;;0.80;;
76582;SDS011;65462;52.148;7.940;2023-03-31T14:42:45;6.30;;;1.13;;
76582;SDS011;65462;52.148;7.940;2023-03-31T14:45:15;6.32;;;1.25;;
76582;SDS011;65462;52.148;7.940;2023-03-31T14:47:52;7.15;;;1.42;;
76582;SDS011;65462;52.148;7.940;2023-03-31T14:50:21;6.20;;;1.38;;
76582;SDS011;65462;52.148;7.940;2023-03-31T14:52:53;4.63;;;1.23;;
76582;SDS011;65462;52.148;7.940;2023-03-31T14:55:22;7.53;;;1.50;;
76582;SDS011;65462;52.148;7.940;2023-03-31T14:57:49;8.10;;;1.25;;
76582;SDS011;65462;52.148;7.940;2023-03-31T15:00:23;5.20;;;1.00;;
76582;SDS011;65462;52.148;7.940;2023-03-31T15:02:51;4.85;;;1.00;;
76582;SDS011;65462;52.148;7.940;2023-03-31T15:05:24;7.05;;;1.33;;
76582;SDS011;65462;52.148;7.940;2023-03-31T15:07:57;4.45;;;1.33;;
76582;SDS011;65462;52.148;7.940;2023-03-31T15:10:23;6.30;;;1.23;;
76582;SDS011;65462;52.148;7.940;2023-03-31T15:12:49;6.93;;;1.40;;
76582;SDS011;65462;52.148;7.940;2023-03-31T15:15:15;4.72;;;1.65;;
76582;SDS011;65462;52.148;7.940;2023-03-31T15:17:44;5.63;;;2.28;;
76582;SDS011;65462;52.148;7.940;2023-03-31T15:20:24;7.18;;;1.38;;
76582;SDS011;65462;52.148;7.940;2023-03-31T15:22:49;5.75;;;1.17;;
76582;SDS011;65462;52.148;7.940;2023-03-31T15:25:15;7.07;;;1.80;;
76582;SDS011;65462;52.148;7.940;2023-03-31T15:27:46;6.43;;;1.58;;
76582;SDS011;65462;52.148;7.940;2023-03-31T15:30:18;7.93;;;1.65;;
76582;SDS011;65462;52.148;7.940;2023-03-31T15:32:45;8.38;;;1.60;;
76582;SDS011;65462;52.148;7.940;2023-03-31T15:35:26;6.15;;;1.90;;
76582;SDS011;65462;52.148;7.940;2023-03-31T15:37:55;7.80;;;1.20;;
76582;SDS011;65462;52.148;7.940;2023-03-31T15:40:56;7.82;;;1.50;;
76582;SDS011;65462;52.148;7.940;2023-03-31T15:43:25;7.13;;;1.60;;
76582;SDS011;65462;52.148;7.940;2023-03-31T15:48:24;8.10;;;1.30;;
76582;SDS011;65462;52.148;7.940;2023-03-31T15:51:00;6.82;;;1.50;;
76582;SDS011;65462;52.148;7.940;2023-03-31T15:53:31;5.05;;;1.55;;
76582;SDS011;65462;52.148;7.940;2023-03-31T15:56:01;6.07;;;1.40;;
76582;SDS011;65462;52.148;7.940;2023-03-31T15:58:46;6.00;;;1.33;;
76582;SDS011;65462;52.148;7.940;2023-03-31T16:01:19;5.10;;;1.48;;
76582;SDS011;65462;52.148;7.940;2023-03-31T16:03:46;6.60;;;1.60;;
76582;SDS011;65462;52.148;7.940;2023-03-31T16:06:18;5.03;;;1.25;;
76582;SDS011;65462;52.148;7.940;2023-03-31T16:09:07;6.57;;;1.50;;
76582;SDS011;65462;52.148;7.940;2023-03-31T16:11:40;11.13;;;1.67;;
76582;SDS011;65462;52.148;7.940;2023-03-31T16:14:13;7.25;;;1.77;;
76582;SDS011;65462;52.148;7.940;2023-03-31T16:16:44;7.30;;;1.42;;
76582;SDS011;65462;52.148;7.940;2023-03-31T16:19:23;6.88;;;1.40;;
76582;SDS011;65462;52.148;7.940;2023-03-31T16:21:51;8.25;;;1.63;;
76582;SDS011;65462;52.148;7.940;2023-03-31T16:24:27;5.75;;;1.45;;
76582;SDS011;65462;52.148;7.940;2023-03-31T16:27:01;6.57;;;1.60;;
76582;SDS011;65462;52.148;7.940;2023-03-31T16:29:31;8.20;;;1.50;;
76582;SDS011;65462;52.148;7.940;2023-03-31T16:32:16;6.55;;;1.33;;
76582;SDS011;65462;52.148;7.940;2023-03-31T16:34:53;4.78;;;1.20;;
76582;SDS011;65462;52.148;7.940;2023-03-31T16:37:21;8.48;;;1.63;;
76582;SDS011;65462;52.148;7.940;2023-03-31T16:39:47;5.47;;;1.33;;
76582;SDS011;65462;52.148;7.940;2023-03-31T16:42:12;5.03;;;1.23;;
76582;SDS011;65462;52.148;7.940;2023-03-31T16:44:37;10.18;;;1.90;;
76582;SDS011;65462;52.148;7.940;2023-03-31T16:47:02;6.25;;;1.02;;
76582;SDS011;65462;52.148;7.940;2023-03-31T16:49:28;7.97;;;1.50;;
76582;SDS011;65462;52.148;7.940;2023-03-31T16:51:53;5.82;;;1.25;;
76582;SDS011;65462;52.148;7.940;2023-03-31T16:54:18;7.30;;;1.35;;
76582;SDS011;65462;52.148;7.940;2023-03-31T16:56:44;5.15;;;1.10;;
76582;SDS011;65462;52.148;7.940;2023-03-31T16:59:09;6.30;;;1.13;;
76582;SDS011;65462;52.148;7.940;2023-03-31T17:01:35;4.00;;;1.10;;
76582;SDS011;65462;52.148;7.940;2023-03-31T17:04:00;4.80;;;1.17;;
76582;SDS011;65462;52.148;7.940;2023-03-31T17:06:25;5.25;;;1.20;;
76582;SDS011;65462;52.148;7.940;2023-03-31T17:08:51;5.53;;;1.48;;
76582;SDS011;65462;52.148;7.940;2023-03-31T17:11:17;5.03;;;1.20;;
76582;SDS011;65462;52.148;7.940;2023-03-31T17:13:42;3.28;;;0.80;;
76582;SDS011;65462;52.148;7.940;2023-03-31T17:16:09;5.10;;;1.00;;
76582;SDS011;65462;52.148;7.940;2023-03-31T17:18:35;4.75;;;1.20;;
76582;SDS011;65462;52.148;7.940;2023-03-31T17:21:02;5.40;;;1.02;;
76582;SDS011;65462;52.148;7.940;2023-03-31T17:23:29;5.05;;;1.05;;
76582;SDS011;65462;52.148;7.940;2023-03-31T17:25:54;4.85;;;1.15;;
76582;SDS011;65462;52.148;7.940;2023-03-31T17:28:20;4.13;;;1.05;;
76582;SDS011;65462;52.148;7.940;2023-03-31T17:30:45;3.67;;;0.90;;